Terminal Aerodrome Forecast
Issued by NWS

Home | Current Version | Previous Version | Text Only | Print | Product List | Glossary On
Versions: 1 2 3 4 5 6 7 8 9 10 11 12 13 14 15 16 17
000
FTUS44 KTSA 281100
TAFXNA
TAF
KXNA 281140Z 2812/2912 VRB04KT P6SM SCT150
     FM281500 18010KT 5SM TSRA SCT030 OVC050CB
      TEMPO 2816/2818 VRB15G35KT 2SM TSRA OVC030CB
     FM282000 18009KT P6SM SCT050 OVC100
     FM290600 16006KT 5SM TSRA BKN050CB=

USA.gov is the U.S. government's official web portal to all federal, state and local government web resources and services.